Time;durP1;ratioP1;P1;durP2;ratioP2;P2;SDS_P1;SDS_P2;PMS_P1;PMS_P2;Temp;Humidity;BMP_temperature;BMP_pressure;BME280_temperature;BME280_humidity;BME280_pressure;Samples;Min_cycle;Max_cycle;Signal;HPM_P1;HPM_P2
2022/11/27 00:02:26;;;;;;;59.80;27.40;;;;;;;0.98;88.11;101870.89;104855;1309;36980;-69
2022/11/27 00:05:02;;;;;;;53.50;27.70;;;;;;;1.01;88.38;101862.70;104812;1309;37096;-71
2022/11/27 00:07:39;;;;;;;59.30;27.00;;;;;;;1.02;88.42;101867.55;104817;1309;37051;-72
2022/11/27 00:10:24;;;;;;;65.00;28.30;;;;;;;1.04;88.44;101869.83;104793;1309;36555;-72
2022/11/27 00:12:58;;;;;;;57.10;28.30;;;;;;;1.03;88.42;101867.40;104835;1303;37202;-71
2022/11/27 00:15:37;;;;;;;64.60;30.20;;;;;;;1.02;88.45;101864.44;104725;1309;172282;-71
2022/11/27 00:18:12;;;;;;;56.00;25.60;;;;;;;0.99;88.34;101866.77;104839;1309;36928;-71
2022/11/27 00:20:46;;;;;;;62.80;26.20;;;;;;;0.98;88.45;101863.48;104808;1309;37014;-71
2022/11/27 00:23:24;;;;;;;57.50;26.20;;;;;;;0.99;88.36;101857.16;104865;1302;37021;-71
2022/11/27 00:25:58;;;;;;;60.80;29.30;;;;;;;1.01;88.67;101861.52;104835;1309;37019;-71
2022/11/27 00:28:32;;;;;;;59.40;26.90;;;;;;;1.05;88.73;101864.88;104799;1309;37771;-71
2022/11/27 00:31:17;;;;;;;55.70;26.40;;;;;;;1.07;88.64;101864.73;104779;1308;37065;-71
2022/11/27 00:33:55;;;;;;;55.30;27.00;;;;;;;1.04;88.42;101862.64;104813;1309;37014;-71
2022/11/27 00:36:32;;;;;;;60.80;27.30;;;;;;;1.02;88.59;101867.73;104803;1309;36069;-71
2022/11/27 00:39:07;;;;;;;60.40;26.70;;;;;;;1.00;88.47;101870.42;104753;1309;36014;-69
2022/11/27 00:41:41;;;;;;;62.10;27.50;;;;;;;0.97;88.48;101869.84;104738;1311;40309;-70
2022/11/27 00:44:17;;;;;;;55.80;25.80;;;;;;;0.96;88.28;101866.36;104822;1309;37047;-71
2022/11/27 00:46:51;;;;;;;53.30;24.40;;;;;;;0.98;88.41;101860.05;104824;1309;37121;-70
2022/11/27 00:49:25;;;;;;;59.50;26.30;;;;;;;1.00;88.55;101859.95;104787;1309;37116;-70
2022/11/27 00:52:00;;;;;;;62.30;27.60;;;;;;;1.03;88.86;101862.08;104808;1309;37147;-71
2022/11/27 00:54:36;;;;;;;52.00;25.20;;;;;;;1.03;88.53;101858.81;104699;1312;37035;-70
2022/11/27 00:57:16;;;;;;;52.50;25.70;;;;;;;1.00;88.48;101854.96;104799;1309;37012;-70
2022/11/27 00:59:55;;;;;;;68.60;27.20;;;;;;;0.97;88.44;101856.41;104797;1309;36985;-71
2022/11/27 01:02:29;;;;;;;64.10;27.90;;;;;;;0.95;88.50;101855.70;104838;1309;35993;-70
2022/11/27 01:05:05;;;;;;;52.70;23.30;;;;;;;0.93;88.46;101854.44;104699;1312;38238;-70
2022/11/27 01:07:42;;;;;;;57.30;24.80;;;;;;;0.96;88.59;101855.36;104811;1309;36949;-70
2022/11/27 01:10:20;;;;;;;58.70;27.50;;;;;;;0.99;88.85;101856.47;104812;1309;37024;-70
2022/11/27 01:12:54;;;;;;;54.40;26.00;;;;;;;1.03;88.90;101857.63;104811;1309;37392;-70
2022/11/27 01:15:31;;;;;;;60.50;27.20;;;;;;;1.04;88.79;101854.55;104813;1309;37012;-70
2022/11/27 01:18:07;;;;;;;52.20;26.50;;;;;;;1.04;88.69;101856.94;104799;1309;37232;-70
2022/11/27 01:20:42;;;;;;;54.90;26.40;;;;;;;0.99;88.45;101854.76;104724;1309;36393;-69
2022/11/27 01:23:16;;;;;;;57.40;27.30;;;;;;;0.97;88.59;101858.83;104815;1309;37491;-70
2022/11/27 01:25:56;;;;;;;59.00;28.60;;;;;;;0.97;88.69;101857.79;104796;1309;37238;-70
2022/11/27 01:28:31;;;;;;;53.50;27.90;;;;;;;1.00;88.80;101859.60;104809;1309;38411;-70
2022/11/27 01:31:09;;;;;;;49.90;24.90;;;;;;;1.02;88.74;101863.77;104801;1309;36982;-70
2022/11/27 01:33:45;;;;;;;55.40;26.00;;;;;;;1.04;88.72;101858.33;104839;1309;37134;-71
2022/11/27 01:36:19;;;;;;;55.80;30.30;;;;;;;1.05;88.70;101858.68;104818;1309;37073;-71
2022/11/27 01:38:53;;;;;;;55.70;27.50;;;;;;;1.05;88.76;101859.71;104795;1309;36951;-69
2022/11/27 01:41:28;;;;;;;57.60;28.10;;;;;;;1.03;88.70;101862.06;104829;1309;36894;-70
2022/11/27 01:44:21;;;;;;;58.10;28.00;;;;;;;1.02;88.61;101860.84;104815;1309;37048;-71
2022/11/27 01:46:58;;;;;;;57.90;26.40;;;;;;;1.02;88.48;101859.45;104826;1309;37074;-71
2022/11/27 01:49:35;;;;;;;54.70;28.30;;;;;;;1.03;88.58;101860.89;104805;1315;36660;-71
2022/11/27 01:52:15;;;;;;;57.60;27.40;;;;;;;1.04;88.47;101858.16;104849;1309;37098;-69
2022/11/27 01:55:04;;;;;;;59.10;28.10;;;;;;;1.02;88.55;101861.20;104833;1309;37576;-70
2022/11/27 01:57:44;;;;;;;60.90;28.90;;;;;;;1.00;88.38;101861.14;104819;1309;38097;-70
2022/11/27 02:00:20;;;;;;;64.20;29.00;;;;;;;0.96;88.35;101864.30;104817;1308;37071;-70
2022/11/27 02:02:54;;;;;;;65.30;30.00;;;;;;;0.93;88.56;101872.14;104833;1309;38193;-70
2022/11/27 02:05:32;;;;;;;66.00;32.70;;;;;;;0.96;88.63;101882.85;104805;1309;36892;-70
2022/11/27 02:08:10;;;;;;;64.10;30.50;;;;;;;0.98;88.78;101881.35;104840;1309;37008;-70
2022/11/27 02:10:54;;;;;;;64.40;33.00;;;;;;;1.00;88.89;101884.19;104809;1309;36301;-69
2022/11/27 02:13:41;;;;;;;64.30;32.10;;;;;;;1.03;88.95;101888.21;104805;1309;37760;-71
2022/11/27 02:16:20;;;;;;;61.00;31.50;;;;;;;1.06;89.10;101889.81;104856;1309;37000;-71
2022/11/27 02:19:00;;;;;;;64.40;31.90;;;;;;;1.06;88.92;101886.89;104872;1309;37734;-68
2022/11/27 02:21:39;;;;;;;;;;;;;;;1.05;88.91;101885.49;104916;1309;37721;-69
2022/11/27 02:24:42;;;;;;;68.40;35.00;;;;;;;1.03;88.76;101877.89;104838;1309;37264;-69
2022/11/27 02:27:48;;;;;;;62.70;32.90;;;;;;;1.03;88.70;101883.02;104819;1309;36037;-71
2022/11/27 02:30:22;;;;;;;63.10;32.90;;;;;;;1.09;89.01;101889.71;104742;1310;37006;-69
2022/11/27 02:33:01;;;;;;;68.30;33.10;;;;;;;1.16;89.05;101891.27;104838;1310;37141;-70
2022/11/27 02:35:36;;;;;;;63.90;32.00;;;;;;;1.19;88.85;101889.81;104813;1309;36851;-71
2022/11/27 02:38:15;;;;;;;67.30;36.00;;;;;;;1.18;88.86;101888.91;104823;1309;37298;-71
2022/11/27 02:41:05;;;;;;;69.00;34.20;;;;;;;1.16;88.81;101885.43;104819;1310;37562;-71
2022/11/27 02:43:43;;;;;;;80.40;38.30;;;;;;;1.15;88.81;101888.67;104803;1309;36747;-70
2022/11/27 02:46:17;;;;;;;67.70;33.20;;;;;;;1.14;88.80;101887.62;104819;1309;36926;-70
2022/11/27 02:48:55;;;;;;;68.00;34.10;;;;;;;1.15;88.56;101886.95;104815;1310;36994;-70
2022/11/27 02:51:36;;;;;;;67.60;34.60;;;;;;;1.18;88.90;101891.30;104836;1309;37163;-69
2022/11/27 02:54:12;;;;;;;79.60;38.30;;;;;;;1.20;88.79;101892.56;104806;1309;36247;-70
2022/11/27 02:56:48;;;;;;;76.30;37.00;;;;;;;1.21;88.85;101893.80;104833;1303;37108;-71
2022/11/27 02:59:25;;;;;;;73.70;37.50;;;;;;;1.18;88.58;101891.48;104830;1310;36976;-72
2022/11/27 03:02:05;;;;;;;81.30;37.10;;;;;;;1.14;88.55;101887.61;104816;1310;37258;-71
2022/11/27 03:04:44;;;;;;;81.00;36.30;;;;;;;1.12;88.69;101886.69;104821;1311;37032;-71
2022/11/27 03:07:22;;;;;;;85.50;40.40;;;;;;;1.15;88.72;101888.48;104816;1309;37457;-70
2022/11/27 03:10:01;;;;;;;79.60;38.50;;;;;;;1.18;88.82;101888.07;104809;1309;36818;-69
2022/11/27 03:12:35;;;;;;;77.90;37.90;;;;;;;1.18;88.65;101886.66;104831;1309;36912;-71
2022/11/27 03:15:17;;;;;;;85.80;42.10;;;;;;;1.17;88.63;101884.41;104709;1308;172548;-71
2022/11/27 03:17:56;;;;;;;85.80;38.90;;;;;;;1.18;88.80;101890.27;104795;1314;36325;-71
2022/11/27 03:20:33;;;;;;;94.20;41.30;;;;;;;1.15;88.70;101890.20;104820;1309;37303;-71
2022/11/27 03:23:06;;;;;;;83.10;38.30;;;;;;;1.13;88.90;101887.56;104796;1308;37150;-70
2022/11/27 03:25:40;;;;;;;84.00;39.90;;;;;;;1.11;88.74;101891.14;104787;1309;37053;-70
2022/11/27 03:28:15;;;;;;;74.90;36.90;;;;;;;1.11;88.69;101890.61;104849;1309;36896;-71
2022/11/27 03:30:56;;;;;;;86.50;40.10;;;;;;;1.12;88.76;101893.40;104715;1312;36179;-71
2022/11/27 03:33:34;;;;;;;81.80;37.60;;;;;;;1.15;89.01;101888.67;104820;1309;38756;-70
2022/11/27 03:36:17;;;;;;;84.80;41.70;;;;;;;1.18;88.92;101890.27;104850;1309;36989;-70
2022/11/27 03:38:51;;;;;;;86.30;38.30;;;;;;;1.20;89.14;101892.05;104810;1309;37237;-70
2022/11/27 03:41:32;;;;;;;91.20;38.60;;;;;;;1.19;89.01;101892.73;104850;1309;37846;-70
2022/11/27 03:44:11;;;;;;;85.90;37.90;;;;;;;1.17;88.93;101888.88;104808;1310;37045;-71
2022/11/27 03:46:58;;;;;;;88.50;40.20;;;;;;;1.19;89.19;101890.30;104838;1315;37516;-70
2022/11/27 03:49:41;;;;;;;79.60;39.70;;;;;;;1.23;89.26;101890.08;104691;1309;174702;-70
2022/11/27 03:52:19;;;;;;;85.10;37.40;;;;;;;1.27;89.17;101886.21;104854;1313;36985;-70
2022/11/27 03:54:59;;;;;;;87.80;40.70;;;;;;;1.31;89.20;101886.64;104804;1309;37576;-70
2022/11/27 03:57:38;;;;;;;93.60;41.60;;;;;;;1.32;89.02;101886.16;104828;1311;38159;-70
2022/11/27 04:00:15;;;;;;;88.50;41.20;;;;;;;1.32;88.94;101886.65;104851;1308;37154;-70
2022/11/27 04:02:52;;;;;;;94.60;42.00;;;;;;;1.30;89.10;101888.01;104827;1309;38247;-71
2022/11/27 04:05:26;;;;;;;94.40;42.10;;;;;;;1.30;89.06;101891.10;104833;1309;35961;-71
2022/11/27 04:08:00;;;;;;;84.00;38.50;;;;;;;1.30;88.88;101893.16;104718;1309;174676;-70
2022/11/27 04:10:34;;;;;;;81.20;39.60;;;;;;;1.31;88.92;101892.31;104837;1309;38653;-71
2022/11/27 04:13:08;;;;;;;89.40;39.50;;;;;;;1.30;88.78;101889.03;104854;1309;36017;-71
2022/11/27 04:15:44;;;;;;;78.40;38.20;;;;;;;1.31;88.86;101885.79;104809;1309;36110;-72
2022/11/27 04:18:21;;;;;;;85.00;39.00;;;;;;;1.32;88.89;101885.11;104810;1310;37016;-72
2022/11/27 04:20:58;;;;;;;86.10;39.20;;;;;;;1.30;88.91;101886.45;104827;1309;37021;-72
2022/11/27 04:23:34;;;;;;;88.10;41.80;;;;;;;1.28;88.84;101887.60;104814;1310;37135;-71
2022/11/27 04:26:08;;;;;;;80.70;38.00;;;;;;;1.27;88.92;101892.40;104821;1310;37054;-70
2022/11/27 04:28:44;;;;;;;76.50;36.80;;;;;;;1.25;88.55;101892.34;104786;1309;36614;-70
2022/11/27 04:31:18;;;;;;;79.60;38.30;;;;;;;1.24;88.75;101889.77;104822;1310;37113;-71
2022/11/27 04:33:53;;;;;;;80.60;38.20;;;;;;;1.28;88.95;101882.79;104692;1309;37042;-69
2022/11/27 04:36:30;;;;;;;78.60;37.10;;;;;;;1.29;88.92;101881.12;104822;1309;37003;-70
2022/11/27 04:39:04;;;;;;;83.50;39.40;;;;;;;1.30;88.90;101883.19;104840;1309;38263;-70
2022/11/27 04:41:42;;;;;;;83.90;41.90;;;;;;;1.28;88.79;101887.44;104852;1310;37037;-70
2022/11/27 04:44:21;;;;;;;81.00;38.00;;;;;;;1.25;88.74;101890.45;104791;1309;37707;-70
2022/11/27 04:46:55;;;;;;;77.40;38.90;;;;;;;1.24;88.71;101892.33;104849;1309;38305;-71
2022/11/27 04:49:31;;;;;;;78.20;35.70;;;;;;;1.26;88.67;101895.45;104815;1309;37087;-70
2022/11/27 04:52:05;;;;;;;73.10;37.10;;;;;;;1.25;88.60;101893.22;104812;1309;37069;-70
2022/11/27 04:54:39;;;;;;;76.10;37.70;;;;;;;1.27;88.69;101890.16;104799;1309;36980;-69
2022/11/27 04:57:16;;;;;;;80.00;36.60;;;;;;;1.30;88.84;101888.17;104822;1305;37177;-70
2022/11/27 04:59:49;;;;;;;81.00;38.50;;;;;;;1.28;88.69;101883.67;104794;1309;36981;-70
2022/11/27 05:02:26;;;;;;;83.40;39.60;;;;;;;1.24;88.64;101886.50;104823;1309;37081;-69
2022/11/27 05:05:04;;;;;;;77.10;35.30;;;;;;;1.21;88.63;101888.98;104796;1309;37550;-69
2022/11/27 05:07:42;;;;;;;82.30;35.60;;;;;;;1.18;88.62;101889.41;104813;1310;36209;-71
2022/11/27 05:10:16;;;;;;;76.50;36.30;;;;;;;1.17;88.69;101885.95;104798;1309;36458;-71
2022/11/27 05:12:51;;;;;;;76.00;36.90;;;;;;;1.21;88.92;101886.92;104806;1309;37220;-71
2022/11/27 05:15:24;;;;;;;83.50;40.20;;;;;;;1.26;89.04;101885.50;104392;1309;571217;-70
2022/11/27 05:17:58;;;;;;;79.30;37.50;;;;;;;1.30;88.87;101883.02;104854;1310;38173;-71
2022/11/27 05:20:35;;;;;;;79.20;36.60;;;;;;;1.29;88.70;101884.04;104865;1301;37071;-71
2022/11/27 05:23:14;;;;;;;77.90;35.30;;;;;;;1.27;88.72;101884.48;104840;1309;37070;-71
2022/11/27 05:25:50;;;;;;;80.70;35.80;;;;;;;1.26;88.74;101882.39;104699;1309;174674;-70
2022/11/27 05:28:24;;;;;;;81.40;39.10;;;;;;;1.24;88.66;101882.85;104822;1309;37078;-71
2022/11/27 05:30:58;;;;;;;77.40;35.50;;;;;;;1.24;88.83;101880.30;104848;1309;36632;-71
2022/11/27 05:33:32;;;;;;;77.20;35.40;;;;;;;1.28;89.00;101878.34;104792;1309;36144;-70
2022/11/27 05:36:09;;;;;;;77.50;36.60;;;;;;;1.33;88.91;101878.25;104841;1309;38316;-70
2022/11/27 05:38:46;;;;;;;81.10;37.80;;;;;;;1.34;88.89;101874.52;104803;1309;36993;-71
2022/11/27 05:41:23;;;;;;;92.90;39.90;;;;;;;1.35;88.99;101879.88;104814;1309;35986;-71
2022/11/27 05:43:58;;;;;;;91.00;41.90;;;;;;;1.35;88.88;101879.17;104825;1309;37123;-71
2022/11/27 05:46:35;;;;;;;88.90;39.50;;;;;;;1.34;88.89;101878.64;104838;1309;36387;-71
2022/11/27 05:49:10;;;;;;;93.00;38.30;;;;;;;1.33;88.85;101875.01;104821;1309;37242;-71
2022/11/27 05:51:47;;;;;;;80.70;38.40;;;;;;;1.35;88.83;101872.64;104848;1309;37078;-70
2022/11/27 05:54:33;;;;;;;80.60;38.90;;;;;;;1.38;88.87;101876.48;104807;1309;36958;-69
2022/11/27 05:57:08;;;;;;;85.20;38.90;;;;;;;1.39;88.92;101874.99;104846;1309;37111;-70
2022/11/27 05:59:43;;;;;;;88.00;37.00;;;;;;;1.43;89.25;101874.54;104809;1309;36823;-70
2022/11/27 06:02:20;;;;;;;89.00;37.80;;;;;;;1.40;88.91;101871.55;104853;1309;36949;-71
2022/11/27 06:04:56;;;;;;;92.40;40.10;;;;;;;1.36;88.78;101869.91;104832;1309;36242;-70
2022/11/27 06:07:34;;;;;;;96.00;38.60;;;;;;;1.33;88.72;101868.80;104847;1309;37025;-71
2022/11/27 06:10:11;;;;;;;92.30;39.00;;;;;;;1.27;88.70;101866.80;104816;1309;37218;-71
2022/11/27 06:12:48;;;;;;;97.30;42.20;;;;;;;1.27;88.76;101866.44;104827;1309;37032;-71
2022/11/27 06:15:22;;;;;;;89.70;38.90;;;;;;;1.29;88.93;101863.75;104793;1309;37126;-72
2022/11/27 06:17:59;;;;;;;89.80;38.70;;;;;;;1.32;88.92;101859.33;104807;1309;36908;-72
2022/11/27 06:20:32;;;;;;;92.50;39.30;;;;;;;1.33;88.98;101857.81;104817;1309;36291;-72
2022/11/27 06:23:06;;;;;;;94.10;38.80;;;;;;;1.35;89.23;101861.30;104829;1309;36683;-71
2022/11/27 06:25:40;;;;;;;98.50;40.00;;;;;;;1.38;89.25;101863.61;104771;1309;37785;-71
2022/11/27 06:28:16;;;;;;;100.90;41.60;;;;;;;1.38;89.15;101862.05;104812;1309;37006;-71
2022/11/27 06:30:52;;;;;;;93.90;37.80;;;;;;;1.37;89.03;101863.92;104777;1309;36088;-71
2022/11/27 06:33:27;;;;;;;86.60;40.10;;;;;;;1.36;88.90;101870.27;104801;1309;37130;-71
2022/11/27 06:36:01;;;;;;;83.60;40.50;;;;;;;1.36;88.94;101870.61;104814;1309;37136;-70
2022/11/27 06:38:40;;;;;;;84.10;37.30;;;;;;;1.40;89.20;101876.73;104809;1309;37026;-72
2022/11/27 06:41:16;;;;;;;89.90;39.30;;;;;;;1.43;89.26;101871.46;104813;1309;37031;-70
2022/11/27 06:43:54;;;;;;;88.80;39.40;;;;;;;1.39;88.96;101877.22;104712;1309;174720;-69
2022/11/27 06:46:31;;;;;;;95.20;38.50;;;;;;;1.36;88.99;101876.80;104808;1309;36941;-71
2022/11/27 06:49:08;;;;;;;80.60;37.10;;;;;;;1.35;89.12;101877.47;104797;1309;36906;-72
2022/11/27 06:51:42;;;;;;;85.60;39.10;;;;;;;1.36;89.16;101876.77;104819;1309;36896;-71
2022/11/27 06:54:21;;;;;;;76.80;37.10;;;;;;;1.39;89.30;101877.58;104782;1309;37144;-71
2022/11/27 06:56:58;;;;;;;83.80;38.80;;;;;;;1.44;89.54;101874.08;104813;1309;36982;-71
2022/11/27 06:59:32;;;;;;;71.70;34.50;;;;;;;1.49;89.31;101878.64;104834;1309;36099;-71
2022/11/27 07:02:06;;;;;;;90.00;39.60;;;;;;;1.51;89.39;101880.59;104814;1309;37237;-71
2022/11/27 07:04:41;;;;;;;78.70;37.90;;;;;;;1.53;89.36;101882.70;104829;1309;38440;-71
2022/11/27 07:07:19;;;;;;;84.60;40.30;;;;;;;1.51;89.29;101882.83;104705;1309;174646;-71
2022/11/27 07:09:53;;;;;;;71.30;34.70;;;;;;;1.52;89.47;101877.69;104809;1309;36914;-71
2022/11/27 07:12:27;;;;;;;74.60;35.90;;;;;;;1.57;89.56;101873.32;104833;1309;37911;-71
2022/11/27 07:15:01;;;;;;;74.80;36.90;;;;;;;1.59;89.28;101868.23;104805;1309;37011;-71
2022/11/27 07:17:37;;;;;;;71.10;35.70;;;;;;;1.61;89.35;101868.44;104833;1309;36764;-71
2022/11/27 07:20:13;;;;;;;76.70;35.20;;;;;;;1.64;89.25;101862.14;104833;1309;37174;-71
2022/11/27 07:22:50;;;;;;;78.40;37.50;;;;;;;1.65;89.33;101863.19;104841;1309;37276;-71
2022/11/27 07:25:26;;;;;;;77.50;36.80;;;;;;;1.65;89.33;101862.52;104790;1302;36510;-71
2022/11/27 07:28:06;;;;;;;78.50;38.50;;;;;;;1.68;89.44;101863.09;104834;1309;36941;-71
2022/11/27 07:30:43;;;;;;;86.80;40.50;;;;;;;1.68;89.44;101861.03;104824;1309;36702;-71
2022/11/27 07:33:22;;;;;;;86.80;37.30;;;;;;;1.69;89.38;101860.52;104834;1309;36642;-70
2022/11/27 07:36:01;;;;;;;76.90;37.30;;;;;;;1.73;89.40;101859.43;104884;1309;36987;-71
2022/11/27 07:38:38;;;;;;;71.90;37.40;;;;;;;1.79;89.56;101857.84;104783;1309;36967;-70
2022/11/27 07:41:20;;;;;;;86.60;38.60;;;;;;;1.85;89.56;101857.95;104744;1309;174692;-70
2022/11/27 07:43:55;;;;;;;76.70;36.30;;;;;;;1.90;89.43;101861.15;104813;1309;37047;-71
2022/11/27 07:46:29;;;;;;;85.30;36.80;;;;;;;1.92;89.57;101859.32;104846;1309;37175;-71
2022/11/27 07:49:03;;;;;;;87.50;39.80;;;;;;;1.96;89.59;101860.60;104834;1309;36784;-71
2022/11/27 07:51:41;;;;;;;94.20;41.50;;;;;;;1.98;89.40;101860.82;104832;1309;37227;-71
2022/11/27 07:54:15;;;;;;;76.80;36.90;;;;;;;2.00;89.52;101862.08;104825;1309;38255;-71
2022/11/27 07:56:54;;;;;;;72.20;37.30;;;;;;;2.07;89.47;101865.98;104838;1309;36096;-71
2022/11/27 07:59:28;;;;;;;82.10;38.00;;;;;;;2.12;89.37;101864.72;104822;1309;36994;-72
2022/11/27 08:02:05;;;;;;;83.80;38.50;;;;;;;2.16;89.23;101865.82;104741;1309;37020;-71
2022/11/27 08:04:43;;;;;;;81.00;41.80;;;;;;;2.18;89.34;101862.77;104725;1310;36985;-71
2022/11/27 08:07:16;;;;;;;81.20;39.70;;;;;;;2.24;89.47;101862.89;104845;1309;36328;-71
2022/11/27 08:09:51;;;;;;;82.70;39.70;;;;;;;2.26;89.40;101863.09;104859;1302;37070;-72
2022/11/27 08:12:30;;;;;;;78.20;39.70;;;;;;;2.27;89.27;101864.18;104840;1309;37227;-72
2022/11/27 08:15:06;;;;;;;87.60;40.00;;;;;;;2.29;89.12;101862.14;104816;1309;37513;-71
2022/11/27 08:17:44;;;;;;;86.70;40.90;;;;;;;2.33;89.08;101861.02;104881;1309;37213;-71
2022/11/27 08:20:21;;;;;;;83.50;40.10;;;;;;;2.35;88.91;101860.17;104803;1309;37087;-72
2022/11/27 08:22:58;;;;;;;82.60;38.30;;;;;;;2.42;89.16;101860.83;104820;1308;36952;-71
2022/11/27 08:25:35;;;;;;;83.90;41.00;;;;;;;2.47;89.22;101857.16;104829;1309;36897;-71
2022/11/27 08:28:15;;;;;;;93.40;43.10;;;;;;;2.51;89.31;101855.84;104826;1309;37000;-71
2022/11/27 08:30:57;;;;;;;85.90;40.80;;;;;;;2.54;89.24;101849.35;104825;1309;36988;-70
2022/11/27 08:33:33;;;;;;;79.10;36.50;;;;;;;2.58;89.08;101851.33;104084;1309;910248;-72
2022/11/27 08:36:08;;;;;;;77.40;37.60;;;;;;;2.63;88.94;101855.03;104803;1309;37234;-73
2022/11/27 08:38:42;;;;;;;84.70;41.90;;;;;;;2.69;89.20;101857.21;104763;1309;37189;-72
2022/11/27 08:41:16;;;;;;;82.10;39.60;;;;;;;2.75;88.91;101857.50;104741;1310;36727;-72
2022/11/27 08:43:50;;;;;;;85.90;42.30;;;;;;;2.78;88.93;101860.99;104753;1309;36227;-71
2022/11/27 08:46:25;;;;;;;88.00;45.20;;;;;;;2.81;88.79;101866.39;104839;1309;37053;-71
2022/11/27 08:49:00;;;;;;;82.70;39.50;;;;;;;2.81;88.51;101869.51;104845;1309;37022;-72
2022/11/27 08:51:34;;;;;;;85.10;42.50;;;;;;;2.81;88.45;101867.27;104865;1309;37023;-70
2022/11/27 08:54:08;;;;;;;81.70;39.80;;;;;;;2.81;88.28;101861.05;104601;1310;174705;-71
2022/11/27 08:56:42;;;;;;;77.90;39.70;;;;;;;2.82;88.29;101861.59;104854;1309;37351;-72
2022/11/27 08:59:19;;;;;;;82.30;40.50;;;;;;;2.87;88.41;101860.98;104809;1309;37048;-72
2022/11/27 09:01:57;;;;;;;85.40;42.80;;;;;;;2.94;88.56;101865.06;104858;1309;37060;-73
2022/11/27 09:04:31;;;;;;;85.50;40.80;;;;;;;3.03;88.52;101865.90;104840;1309;37188;-72
2022/11/27 09:07:06;;;;;;;86.60;40.60;;;;;;;3.12;88.65;101866.75;104877;1309;37383;-73
2022/11/27 09:09:42;;;;;;;80.10;39.30;;;;;;;3.18;88.45;101873.73;104880;1309;37167;-72
2022/11/27 09:12:19;;;;;;;85.80;44.30;;;;;;;3.19;88.37;101873.75;104829;1306;36988;-74
2022/11/27 09:14:56;;;;;;;91.20;47.60;;;;;;;3.21;88.08;101874.81;104828;1303;37191;-72
2022/11/27 09:17:30;;;;;;;92.00;45.30;;;;;;;3.23;88.14;101875.55;104841;1302;37152;-73
2022/11/27 09:20:13;;;;;;;87.60;44.80;;;;;;;3.27;88.10;101877.33;104846;1309;37093;-72
2022/11/27 09:22:50;;;;;;;87.30;46.80;;;;;;;3.32;87.84;101877.07;104807;1305;36988;-72
2022/11/27 09:25:27;;;;;;;;;;;;;;;3.38;87.85;101881.82;104135;1310;911769;-71
2022/11/27 09:28:03;;;;;;;80.80;41.80;;;;;;;3.39;87.70;101885.62;104776;1310;38117;-73
2022/11/27 09:30:38;;;;;;;80.90;41.40;;;;;;;3.36;87.83;101884.05;104772;1309;38083;-73
2022/11/27 09:33:15;;;;;;;82.30;40.70;;;;;;;3.36;87.81;101884.73;104779;1305;37292;-71
2022/11/27 09:35:51;;;;;;;82.70;40.30;;;;;;;3.36;87.47;101886.98;104772;1310;38507;-71
2022/11/27 09:38:29;;;;;;;80.90;40.00;;;;;;;3.37;87.47;101882.33;104766;1310;36028;-71
2022/11/27 09:41:07;;;;;;;81.30;42.80;;;;;;;3.40;87.37;101880.98;104784;1310;36973;-71
2022/11/27 09:43:49;;;;;;;87.40;43.30;;;;;;;3.45;87.46;101872.27;104781;1310;38254;-71
2022/11/27 09:46:30;;;;;;;77.70;38.90;;;;;;;3.50;87.49;101866.31;104799;1310;37587;-73
2022/11/27 09:49:07;;;;;;;77.80;43.50;;;;;;;3.54;87.58;101867.75;104800;1310;36981;-73
2022/11/27 09:51:46;;;;;;;81.80;41.90;;;;;;;3.57;87.27;101863.65;104788;1310;37044;-69
2022/11/27 09:54:24;;;;;;;89.70;45.10;;;;;;;3.59;87.39;101861.61;104794;1310;38229;-70
2022/11/27 09:56:59;;;;;;;86.00;42.30;;;;;;;3.66;87.49;101867.41;104800;1310;37162;-72
2022/11/27 09:59:36;;;;;;;71.70;38.50;;;;;;;3.74;87.43;101870.62;104778;1310;37189;-70
2022/11/27 10:02:18;;;;;;;85.00;41.40;;;;;;;3.81;87.16;101871.93;104694;1310;174239;-72
2022/11/27 10:04:54;;;;;;;85.10;41.10;;;;;;;3.80;86.60;101871.75;104738;1310;36883;-73
2022/11/27 10:07:37;;;;;;;85.90;42.80;;;;;;;3.85;86.93;101867.66;104790;1310;37186;-72
2022/11/27 10:10:27;;;;;;;89.60;44.20;;;;;;;3.89;86.84;101862.02;104654;1310;36936;-73
2022/11/27 10:13:06;;;;;;;89.60;45.50;;;;;;;3.94;86.92;101856.91;104627;1310;172403;-72
2022/11/27 10:15:50;;;;;;;87.20;43.00;;;;;;;3.97;86.87;101851.94;104793;1302;38051;-71
2022/11/27 10:18:32;;;;;;;74.50;40.20;;;;;;;4.02;87.05;101849.59;104763;1310;37248;-74
2022/11/27 10:21:13;;;;;;;91.10;44.00;;;;;;;4.08;86.69;101846.91;104799;1303;38052;-72
2022/11/27 10:23:51;;;;;;;83.40;42.30;;;;;;;4.15;86.61;101840.25;104803;1309;37246;-70
2022/11/27 10:26:32;;;;;;;80.40;43.10;;;;;;;4.20;86.45;101837.90;104848;1309;39152;-71
2022/11/27 10:29:09;;;;;;;;;;;;;;;4.23;86.35;101839.48;104819;1303;37342;-73
2022/11/27 10:31:45;;;;;;;83.70;43.10;;;;;;;4.25;86.25;101835.02;104742;1309;174181;-72
2022/11/27 10:34:28;;;;;;;81.10;42.80;;;;;;;4.26;86.01;101833.46;104814;1303;37682;-71
2022/11/27 10:37:05;;;;;;;76.50;38.20;;;;;;;4.29;86.27;101830.56;104765;1311;37490;-72
2022/11/27 10:39:53;;;;;;;73.00;38.20;;;;;;;4.33;86.02;101830.95;104833;1309;36102;-73
2022/11/27 10:42:32;;;;;;;67.60;36.60;;;;;;;4.37;86.11;101830.83;104865;1309;37116;-72
2022/11/27 10:45:15;;;;;;;73.20;36.70;;;;;;;4.38;85.71;101827.07;104845;1309;38161;-73
2022/11/27 10:47:54;;;;;;;73.50;38.10;;;;;;;4.39;85.61;101828.45;104845;1308;38318;-73
2022/11/27 10:50:32;;;;;;;94.50;44.40;;;;;;;4.44;86.04;101824.52;104830;1309;37007;-71
2022/11/27 10:53:11;;;;;;;90.40;44.30;;;;;;;4.48;85.81;101820.41;104846;1295;37448;-71
2022/11/27 10:56:16;;;;;;;124.40;52.70;;;;;;;4.51;85.51;101819.73;104826;1309;37026;-71
2022/11/27 10:58:52;;;;;;;95.90;48.90;;;;;;;4.50;85.38;101820.09;104765;1309;37131;-72
2022/11/27 11:01:29;;;;;;;76.40;40.50;;;;;;;4.51;85.18;101820.42;104868;1309;36920;-74
2022/11/27 11:04:12;;;;;;;67.20;38.80;;;;;;;4.54;85.53;101825.48;104830;1309;36994;-72
2022/11/27 11:06:55;;;;;;;63.90;36.00;;;;;;;4.58;85.34;101818.27;104890;1309;37040;-75
2022/11/27 11:09:34;;;;;;;67.20;38.60;;;;;;;4.58;85.09;101816.54;104842;1309;38644;-73
2022/11/27 11:12:19;;;;;;;78.30;44.60;;;;;;;4.59;85.30;101818.63;104865;1309;37266;-73
2022/11/27 11:15:00;;;;;;;74.10;42.70;;;;;;;4.58;84.87;101817.05;104878;1306;37284;-72
2022/11/27 11:17:37;;;;;;;74.60;44.20;;;;;;;4.56;84.82;101811.50;104778;1309;174473;-73
2022/11/27 11:20:24;;;;;;;68.30;38.00;;;;;;;4.53;84.86;101814.58;104846;1309;37162;-72
2022/11/27 11:22:57;;;;;;;64.90;34.80;;;;;;;4.54;84.99;101813.23;104837;1310;35888;-72
2022/11/27 11:25:33;;;;;;;66.90;38.80;;;;;;;4.58;85.01;101808.93;104781;1310;37034;-73
2022/11/27 11:28:14;;;;;;;64.30;39.20;;;;;;;4.63;85.20;101808.98;104791;1310;36927;-73
2022/11/27 11:31:05;;;;;;;68.30;38.00;;;;;;;4.67;85.17;101807.45;104652;1310;174522;-74
2022/11/27 11:33:52;;;;;;;64.90;36.90;;;;;;;4.69;85.03;101805.40;104783;1309;37043;-74
2022/11/27 11:36:29;;;;;;;61.30;37.00;;;;;;;4.67;84.85;101805.20;104655;1311;36789;-74
2022/11/27 11:39:06;;;;;;;70.20;38.60;;;;;;;4.67;85.10;101809.17;104763;1310;37377;-74
2022/11/27 11:41:45;;;;;;;62.90;33.80;;;;;;;4.65;84.75;101811.07;104781;1310;36993;-74
2022/11/27 11:44:26;;;;;;;58.80;31.90;;;;;;;4.65;84.68;101808.30;104768;1310;36905;-73
2022/11/27 11:47:02;;;;;;;62.10;35.70;;;;;;;4.69;84.67;101806.96;104794;1310;37290;-71
2022/11/27 11:49:37;;;;;;;63.80;36.50;;;;;;;4.71;84.71;101803.34;104676;1310;37042;-72
2022/11/27 11:52:27;;;;;;;65.20;36.50;;;;;;;4.73;84.71;101802.48;104761;1310;38175;-73
2022/11/27 11:55:10;;;;;;;60.30;34.40;;;;;;;4.73;84.64;101804.20;104774;1310;36386;-72
2022/11/27 11:58:10;;;;;;;67.10;36.40;;;;;;;4.70;84.22;101802.48;104769;1310;35931;-72